Aérodrome :
LOGIN :

S'inscrire | Disclaimer

   EN    FR    IT 

 










Légende :    VFR   VFR Marginal   IFR   IFR Intensif   IFR Très Intensif
Visi : 
Plafond : 
>= 8 km
>= 3000ft
5 à 8 km
1000 à 3000 ft
1500m à 5 km
500 à 1000 ft
800 à 1500m
200 à 500 ft
< 800m
< 200 ft
Symboles :   Orages  Brouillard  Fortes neiges  Fortes précipitations  Vent > 20 kt
SIGMETs :   Divers  Orages  Givrage  Turbulence  Onde Orograph.  Cendres Volcan.






- Altitude de l'aérodrome : 614 ft
- Code IATA : CRL


EBCI - Charleroi

DERNIER METAR :
  • 100950Z 10010KT 060V140 9999 FEW045 27/10 Q1014 NOSIG

METARs EXPIRÉS :
  • 100920Z 11010KT CAVOK 26/10 Q1014 NOSIG
  • 100850Z 12009KT 080V150 CAVOK 26/10 Q1014 NOSIG
  • 100820Z 12007KT 070V160 CAVOK 25/10 Q1014 NOSIG
  • 100750Z 13009KT 080V160 CAVOK 24/10 Q1014 NOSIG
  • 100720Z 10006KT 070V150 CAVOK 23/10 Q1014 NOSIG
  • 100650Z 12008KT 090V160 CAVOK 22/10 Q1014 NOSIG

TAF TAF EBCI
Valide du 10 à 06h jusqu'au 11 à 12h UTC


100500Z 1006/1112 09009KT CAVOK



MET'MAP, la Météo Aéronautique d'un coup d'oeil ! - Copyright ORBIFLY Décembre 2007 - Disclaimer

ORBIFLY MET'MAP TEAM :

Programmation & Développement : Alexandra Zaïnal
Sur une idée originale de : Baudouin d'Aumeries
Soutien technique & logistique : Manuel Goepfert
Assistance : Marc-Olivier Méhu




SOURCES & CREDITS :

   NOAA